Terminal Aerodrome Forecast
Issued by NWS Twin Cities, MN

Home | Current Version | Previous Version | Graphics & Text | Print | Product List | Glossary On
Versions: 1 2 3 4 5 6 7 8 9 10 11 12 13 14 15 16 17 18 19 20 21 22 23 24 25 26 27 28
264
FTUS43 KMPX 132045 AAA
TAFMSP
TAF AMD
KMSP 132045Z 1321/1424 VRB04KT P6SM SKC
     FM141100 15005KT P6SM BKN110
     FM141800 18007KT P6SM -SN SCT020 OVC035
     FM142100 19010KT 1SM -SN OVC015=

USA.gov is the U.S. government's official web portal to all federal, state and local government web resources and services.